sensor_id;sensor_type;location;lat;lon;timestamp;temperature;humidity
19880;DHT22;10102;50.828;4.416;2023-06-26T00:00:28;24.80;99.90
19880;DHT22;10102;50.828;4.416;2023-06-26T00:02:54;24.70;99.90
19880;DHT22;10102;50.828;4.416;2023-06-26T00:05:19;24.40;99.90
19880;DHT22;10102;50.828;4.416;2023-06-26T00:07:45;24.50;99.90
19880;DHT22;10102;50.828;4.416;2023-06-26T00:10:11;24.20;99.90
19880;DHT22;10102;50.828;4.416;2023-06-26T00:12:36;24.50;99.90
19880;DHT22;10102;50.828;4.416;2023-06-26T00:15:02;24.30;99.90
19880;DHT22;10102;50.828;4.416;2023-06-26T00:17:28;24.10;99.90
19880;DHT22;10102;50.828;4.416;2023-06-26T00:19:54;24.00;99.90
19880;DHT22;10102;50.828;4.416;2023-06-26T00:22:21;24.10;99.90
19880;DHT22;10102;50.828;4.416;2023-06-26T00:24:47;23.70;99.90
19880;DHT22;10102;50.828;4.416;2023-06-26T00:27:12;23.60;99.90
19880;DHT22;10102;50.828;4.416;2023-06-26T00:29:38;23.70;99.90
19880;DHT22;10102;50.828;4.416;2023-06-26T00:32:04;23.60;99.90
19880;DHT22;10102;50.828;4.416;2023-06-26T00:34:30;23.60;99.90
19880;DHT22;10102;50.828;4.416;2023-06-26T00:36:55;23.50;99.90
19880;DHT22;10102;50.828;4.416;2023-06-26T00:39:21;23.30;99.90
19880;DHT22;10102;50.828;4.416;2023-06-26T00:41:47;23.20;99.90
19880;DHT22;10102;50.828;4.416;2023-06-26T00:46:39;23.10;99.90
19880;DHT22;10102;50.828;4.416;2023-06-26T00:49:05;23.10;99.90
19880;DHT22;10102;50.828;4.416;2023-06-26T00:51:31;22.90;99.90
19880;DHT22;10102;50.828;4.416;2023-06-26T00:53:57;23.00;99.90
19880;DHT22;10102;50.828;4.416;2023-06-26T00:56:23;22.70;99.90
19880;DHT22;10102;50.828;4.416;2023-06-26T00:58:49;22.60;99.90
19880;DHT22;10102;50.828;4.416;2023-06-26T01:03:44;22.70;99.90
19880;DHT22;10102;50.828;4.416;2023-06-26T01:06:12;22.70;99.90
19880;DHT22;10102;50.828;4.416;2023-06-26T01:08:40;22.90;99.90
19880;DHT22;10102;50.828;4.416;2023-06-26T01:11:06;22.50;99.90
19880;DHT22;10102;50.828;4.416;2023-06-26T01:13:33;22.80;99.90
19880;DHT22;10102;50.828;4.416;2023-06-26T01:16:00;22.40;99.90
19880;DHT22;10102;50.828;4.416;2023-06-26T01:18:26;22.20;99.90
19880;DHT22;10102;50.828;4.416;2023-06-26T01:20:53;22.30;99.90
19880;DHT22;10102;50.828;4.416;2023-06-26T01:26:30;22.10;99.90
19880;DHT22;10102;50.828;4.416;2023-06-26T01:29:01;22.00;99.90
19880;DHT22;10102;50.828;4.416;2023-06-26T01:31:29;21.80;99.90
19880;DHT22;10102;50.828;4.416;2023-06-26T01:33:57;21.90;99.90
19880;DHT22;10102;50.828;4.416;2023-06-26T01:36:24;21.80;99.90
19880;DHT22;10102;50.828;4.416;2023-06-26T01:38:50;22.00;99.90
19880;DHT22;10102;50.828;4.416;2023-06-26T01:41:18;21.80;99.90
19880;DHT22;10102;50.828;4.416;2023-06-26T01:46:55;21.90;99.90
19880;DHT22;10102;50.828;4.416;2023-06-26T01:49:41;22.00;99.90
19880;DHT22;10102;50.828;4.416;2023-06-26T01:52:19;21.70;99.90
19880;DHT22;10102;50.828;4.416;2023-06-26T01:54:58;22.10;99.90
19880;DHT22;10102;50.828;4.416;2023-06-26T01:57:26;21.90;99.90
19880;DHT22;10102;50.828;4.416;2023-06-26T01:59:54;21.70;99.90
19880;DHT22;10102;50.828;4.416;2023-06-26T02:02:23;22.00;99.90
19880;DHT22;10102;50.828;4.416;2023-06-26T02:04:49;21.70;99.90
19880;DHT22;10102;50.828;4.416;2023-06-26T02:07:15;21.60;99.90
19880;DHT22;10102;50.828;4.416;2023-06-26T02:12:08;21.50;99.90
19880;DHT22;10102;50.828;4.416;2023-06-26T02:14:33;21.40;99.90
19880;DHT22;10102;50.828;4.416;2023-06-26T02:16:59;21.50;99.90
19880;DHT22;10102;50.828;4.416;2023-06-26T02:19:26;21.50;99.90
19880;DHT22;10102;50.828;4.416;2023-06-26T02:21:54;21.50;99.90
19880;DHT22;10102;50.828;4.416;2023-06-26T02:24:19;21.50;99.90
19880;DHT22;10102;50.828;4.416;2023-06-26T02:26:45;21.20;99.90
19880;DHT22;10102;50.828;4.416;2023-06-26T02:29:12;21.20;99.90
19880;DHT22;10102;50.828;4.416;2023-06-26T02:31:37;20.90;99.90
19880;DHT22;10102;50.828;4.416;2023-06-26T02:34:03;21.10;99.90
19880;DHT22;10102;50.828;4.416;2023-06-26T02:36:29;21.00;99.90
19880;DHT22;10102;50.828;4.416;2023-06-26T02:38:55;21.00;99.90
19880;DHT22;10102;50.828;4.416;2023-06-26T02:41:21;21.30;99.90
19880;DHT22;10102;50.828;4.416;2023-06-26T02:43:46;21.20;99.90
19880;DHT22;10102;50.828;4.416;2023-06-26T02:46:12;21.20;99.90
19880;DHT22;10102;50.828;4.416;2023-06-26T02:48:38;21.20;99.90
19880;DHT22;10102;50.828;4.416;2023-06-26T02:51:03;20.90;99.90
19880;DHT22;10102;50.828;4.416;2023-06-26T02:53:29;21.00;99.90
19880;DHT22;10102;50.828;4.416;2023-06-26T02:58:22;20.90;99.90
19880;DHT22;10102;50.828;4.416;2023-06-26T03:00:48;20.80;99.90
19880;DHT22;10102;50.828;4.416;2023-06-26T03:03:14;20.80;99.90
19880;DHT22;10102;50.828;4.416;2023-06-26T03:05:39;20.80;99.90
19880;DHT22;10102;50.828;4.416;2023-06-26T03:08:05;20.90;99.90
19880;DHT22;10102;50.828;4.416;2023-06-26T03:10:31;20.90;99.90
19880;DHT22;10102;50.828;4.416;2023-06-26T03:12:57;20.70;99.90
19880;DHT22;10102;50.828;4.416;2023-06-26T03:15:22;20.70;99.90
19880;DHT22;10102;50.828;4.416;2023-06-26T03:17:48;20.60;99.90
19880;DHT22;10102;50.828;4.416;2023-06-26T03:20:13;20.40;99.90
19880;DHT22;10102;50.828;4.416;2023-06-26T03:22:41;20.70;99.90
19880;DHT22;10102;50.828;4.416;2023-06-26T03:25:06;20.70;99.90
19880;DHT22;10102;50.828;4.416;2023-06-26T03:27:32;20.50;99.90
19880;DHT22;10102;50.828;4.416;2023-06-26T03:29:58;20.40;99.90
19880;DHT22;10102;50.828;4.416;2023-06-26T03:32:23;20.30;99.90
19880;DHT22;10102;50.828;4.416;2023-06-26T03:39:41;20.30;99.90
19880;DHT22;10102;50.828;4.416;2023-06-26T03:42:07;20.40;99.90
19880;DHT22;10102;50.828;4.416;2023-06-26T03:44:33;20.50;99.90
19880;DHT22;10102;50.828;4.416;2023-06-26T03:46:58;20.30;99.90
19880;DHT22;10102;50.828;4.416;2023-06-26T03:49:24;20.40;99.90
19880;DHT22;10102;50.828;4.416;2023-06-26T03:54:16;20.00;99.90
19880;DHT22;10102;50.828;4.416;2023-06-26T03:56:42;20.00;99.90
19880;DHT22;10102;50.828;4.416;2023-06-26T03:59:07;20.10;99.90
19880;DHT22;10102;50.828;4.416;2023-06-26T04:01:36;20.00;99.90
19880;DHT22;10102;50.828;4.416;2023-06-26T04:04:01;20.00;99.90
19880;DHT22;10102;50.828;4.416;2023-06-26T04:06:28;19.80;99.90
19880;DHT22;10102;50.828;4.416;2023-06-26T04:08:53;20.10;99.90
19880;DHT22;10102;50.828;4.416;2023-06-26T04:11:19;20.20;99.90
19880;DHT22;10102;50.828;4.416;2023-06-26T04:13:45;20.20;99.90
19880;DHT22;10102;50.828;4.416;2023-06-26T04:16:10;19.60;99.90
19880;DHT22;10102;50.828;4.416;2023-06-26T04:18:37;19.70;99.90
19880;DHT22;10102;50.828;4.416;2023-06-26T04:21:09;19.70;99.90
19880;DHT22;10102;50.828;4.416;2023-06-26T04:30:56;19.90;99.90
19880;DHT22;10102;50.828;4.416;2023-06-26T04:33:21;20.00;99.90
19880;DHT22;10102;50.828;4.416;2023-06-26T04:35:47;19.80;99.90
19880;DHT22;10102;50.828;4.416;2023-06-26T04:38:14;19.80;99.90
19880;DHT22;10102;50.828;4.416;2023-06-26T04:40:41;20.00;99.90
19880;DHT22;10102;50.828;4.416;2023-06-26T04:43:06;19.90;99.90
19880;DHT22;10102;50.828;4.416;2023-06-26T04:45:32;19.80;99.90
19880;DHT22;10102;50.828;4.416;2023-06-26T04:47:58;19.70;99.90
19880;DHT22;10102;50.828;4.416;2023-06-26T04:50:26;19.70;99.90
19880;DHT22;10102;50.828;4.416;2023-06-26T04:52:57;19.70;99.90
19880;DHT22;10102;50.828;4.416;2023-06-26T04:55:26;19.60;99.90
19880;DHT22;10102;50.828;4.416;2023-06-26T04:57:52;19.80;99.90
19880;DHT22;10102;50.828;4.416;2023-06-26T05:00:18;19.50;99.90
19880;DHT22;10102;50.828;4.416;2023-06-26T05:02:44;19.70;99.90
19880;DHT22;10102;50.828;4.416;2023-06-26T05:05:10;19.80;99.90
19880;DHT22;10102;50.828;4.416;2023-06-26T05:07:38;19.60;99.90
19880;DHT22;10102;50.828;4.416;2023-06-26T05:10:04;19.50;99.90
19880;DHT22;10102;50.828;4.416;2023-06-26T05:14:56;19.70;99.90
19880;DHT22;10102;50.828;4.416;2023-06-26T05:17:22;19.60;99.90
19880;DHT22;10102;50.828;4.416;2023-06-26T05:19:47;19.70;99.90
19880;DHT22;10102;50.828;4.416;2023-06-26T05:22:13;19.70;99.90
19880;DHT22;10102;50.828;4.416;2023-06-26T05:24:40;20.10;99.90
19880;DHT22;10102;50.828;4.416;2023-06-26T05:27:06;19.50;99.90
19880;DHT22;10102;50.828;4.416;2023-06-26T05:29:33;19.80;99.90
19880;DHT22;10102;50.828;4.416;2023-06-26T05:34:25;19.90;99.90
19880;DHT22;10102;50.828;4.416;2023-06-26T05:36:58;20.40;99.90
19880;DHT22;10102;50.828;4.416;2023-06-26T05:39:24;20.10;99.90
19880;DHT22;10102;50.828;4.416;2023-06-26T05:41:50;20.30;99.90
19880;DHT22;10102;50.828;4.416;2023-06-26T05:44:16;20.30;99.90
19880;DHT22;10102;50.828;4.416;2023-06-26T05:46:43;20.30;99.90
19880;DHT22;10102;50.828;4.416;2023-06-26T05:49:09;20.10;99.90
19880;DHT22;10102;50.828;4.416;2023-06-26T05:51:35;20.40;99.90
19880;DHT22;10102;50.828;4.416;2023-06-26T05:54:01;20.50;99.90
19880;DHT22;10102;50.828;4.416;2023-06-26T05:56:27;20.60;99.90
19880;DHT22;10102;50.828;4.416;2023-06-26T05:58:54;20.70;99.90
19880;DHT22;10102;50.828;4.416;2023-06-26T06:01:20;21.00;99.90
19880;DHT22;10102;50.828;4.416;2023-06-26T06:03:45;21.00;99.90
19880;DHT22;10102;50.828;4.416;2023-06-26T06:06:11;21.00;99.90
19880;DHT22;10102;50.828;4.416;2023-06-26T06:08:37;21.20;99.90
19880;DHT22;10102;50.828;4.416;2023-06-26T06:11:03;21.30;99.90
19880;DHT22;10102;50.828;4.416;2023-06-26T06:13:29;21.10;99.90
19880;DHT22;10102;50.828;4.416;2023-06-26T06:18:21;21.40;99.90
19880;DHT22;10102;50.828;4.416;2023-06-26T06:20:47;21.10;99.90
19880;DHT22;10102;50.828;4.416;2023-06-26T06:23:13;21.10;99.90
19880;DHT22;10102;50.828;4.416;2023-06-26T06:25:39;21.10;99.90
19880;DHT22;10102;50.828;4.416;2023-06-26T06:28:05;21.00;99.90
19880;DHT22;10102;50.828;4.416;2023-06-26T06:30:31;21.10;99.90
19880;DHT22;10102;50.828;4.416;2023-06-26T06:32:57;20.90;99.90
19880;DHT22;10102;50.828;4.416;2023-06-26T06:35:23;21.20;99.90
19880;DHT22;10102;50.828;4.416;2023-06-26T06:37:49;21.20;99.90
19880;DHT22;10102;50.828;4.416;2023-06-26T06:40:15;21.30;99.90
19880;DHT22;10102;50.828;4.416;2023-06-26T06:42:41;21.40;99.90
19880;DHT22;10102;50.828;4.416;2023-06-26T06:45:07;21.60;99.90
19880;DHT22;10102;50.828;4.416;2023-06-26T06:47:33;21.60;99.90
19880;DHT22;10102;50.828;4.416;2023-06-26T06:50:00;21.80;99.90
19880;DHT22;10102;50.828;4.416;2023-06-26T06:52:37;22.00;99.90
19880;DHT22;10102;50.828;4.416;2023-06-26T06:57:35;21.70;99.90
19880;DHT22;10102;50.828;4.416;2023-06-26T07:00:07;21.80;99.90
19880;DHT22;10102;50.828;4.416;2023-06-26T07:02:42;22.00;99.90
19880;DHT22;10102;50.828;4.416;2023-06-26T07:07:35;22.30;99.90
19880;DHT22;10102;50.828;4.416;2023-06-26T07:10:05;22.10;99.90
19880;DHT22;10102;50.828;4.416;2023-06-26T07:12:33;22.00;99.90
19880;DHT22;10102;50.828;4.416;2023-06-26T07:15:00;21.80;99.90
19880;DHT22;10102;50.828;4.416;2023-06-26T07:17:26;22.00;99.90
19880;DHT22;10102;50.828;4.416;2023-06-26T07:19:52;22.10;99.90
19880;DHT22;10102;50.828;4.416;2023-06-26T07:24:46;22.20;99.90
19880;DHT22;10102;50.828;4.416;2023-06-26T07:27:12;22.40;99.90
19880;DHT22;10102;50.828;4.416;2023-06-26T07:29:38;22.20;99.90
19880;DHT22;10102;50.828;4.416;2023-06-26T07:32:04;22.40;99.90
19880;DHT22;10102;50.828;4.416;2023-06-26T07:34:29;22.80;99.90
19880;DHT22;10102;50.828;4.416;2023-06-26T07:36:55;22.70;99.90
19880;DHT22;10102;50.828;4.416;2023-06-26T07:39:20;22.60;99.90
19880;DHT22;10102;50.828;4.416;2023-06-26T07:44:12;22.50;99.90
19880;DHT22;10102;50.828;4.416;2023-06-26T07:46:38;22.50;99.90
19880;DHT22;10102;50.828;4.416;2023-06-26T07:49:04;22.40;99.90
19880;DHT22;10102;50.828;4.416;2023-06-26T07:51:30;22.70;99.90
19880;DHT22;10102;50.828;4.416;2023-06-26T07:53:55;22.90;99.90
19880;DHT22;10102;50.828;4.416;2023-06-26T07:56:21;22.80;99.90
19880;DHT22;10102;50.828;4.416;2023-06-26T07:58:47;22.50;99.90
19880;DHT22;10102;50.828;4.416;2023-06-26T08:01:12;22.50;99.90
19880;DHT22;10102;50.828;4.416;2023-06-26T08:03:38;22.50;99.90
19880;DHT22;10102;50.828;4.416;2023-06-26T08:06:04;22.50;99.90
19880;DHT22;10102;50.828;4.416;2023-06-26T08:08:29;22.80;99.90
19880;DHT22;10102;50.828;4.416;2023-06-26T08:10:55;22.80;99.90
19880;DHT22;10102;50.828;4.416;2023-06-26T08:13:21;22.70;99.90
19880;DHT22;10102;50.828;4.416;2023-06-26T08:18:12;22.90;99.90
19880;DHT22;10102;50.828;4.416;2023-06-26T08:20:38;23.00;99.90
19880;DHT22;10102;50.828;4.416;2023-06-26T08:23:04;23.30;99.90
19880;DHT22;10102;50.828;4.416;2023-06-26T08:25:30;23.30;99.90
19880;DHT22;10102;50.828;4.416;2023-06-26T08:27:55;23.00;99.90
19880;DHT22;10102;50.828;4.416;2023-06-26T08:30:21;23.30;99.90
19880;DHT22;10102;50.828;4.416;2023-06-26T08:32:47;23.30;99.90
19880;DHT22;10102;50.828;4.416;2023-06-26T08:35:13;23.60;99.90
19880;DHT22;10102;50.828;4.416;2023-06-26T08:37:39;23.30;99.90
19880;DHT22;10102;50.828;4.416;2023-06-26T08:40:05;23.50;99.90
19880;DHT22;10102;50.828;4.416;2023-06-26T08:42:31;23.20;99.90
19880;DHT22;10102;50.828;4.416;2023-06-26T08:47:23;23.40;99.90
19880;DHT22;10102;50.828;4.416;2023-06-26T08:50:19;23.60;99.90
19880;DHT22;10102;50.828;4.416;2023-06-26T08:52:56;23.90;99.90
19880;DHT22;10102;50.828;4.416;2023-06-26T08:55:26;23.60;99.90
19880;DHT22;10102;50.828;4.416;2023-06-26T08:57:52;23.70;99.90
19880;DHT22;10102;50.828;4.416;2023-06-26T09:00:21;23.60;99.90
19880;DHT22;10102;50.828;4.416;2023-06-26T09:02:47;23.20;99.90
19880;DHT22;10102;50.828;4.416;2023-06-26T09:05:13;23.20;99.90
19880;DHT22;10102;50.828;4.416;2023-06-26T09:07:39;23.20;99.90
19880;DHT22;10102;50.828;4.416;2023-06-26T09:10:05;23.30;99.90
19880;DHT22;10102;50.828;4.416;2023-06-26T09:12:31;23.90;99.90
19880;DHT22;10102;50.828;4.416;2023-06-26T09:14:57;23.80;99.90
19880;DHT22;10102;50.828;4.416;2023-06-26T09:17:30;24.10;99.90
19880;DHT22;10102;50.828;4.416;2023-06-26T09:19:56;24.60;99.90
19880;DHT22;10102;50.828;4.416;2023-06-26T09:22:23;24.30;99.90
19880;DHT22;10102;50.828;4.416;2023-06-26T09:24:49;23.70;99.90
19880;DHT22;10102;50.828;4.416;2023-06-26T09:27:17;23.80;99.90
19880;DHT22;10102;50.828;4.416;2023-06-26T09:29:45;23.70;99.90
19880;DHT22;10102;50.828;4.416;2023-06-26T09:32:13;23.60;99.90
19880;DHT22;10102;50.828;4.416;2023-06-26T09:34:41;23.80;99.90
19880;DHT22;10102;50.828;4.416;2023-06-26T09:39:34;24.00;99.90
19880;DHT22;10102;50.828;4.416;2023-06-26T09:41:59;24.00;99.90
19880;DHT22;10102;50.828;4.416;2023-06-26T09:44:27;24.50;99.90
19880;DHT22;10102;50.828;4.416;2023-06-26T09:46:55;24.20;99.90
19880;DHT22;10102;50.828;4.416;2023-06-26T09:49:20;24.20;99.90
19880;DHT22;10102;50.828;4.416;2023-06-26T09:51:46;24.60;99.90
19880;DHT22;10102;50.828;4.416;2023-06-26T09:54:12;24.60;99.90
19880;DHT22;10102;50.828;4.416;2023-06-26T09:56:37;24.60;99.90
19880;DHT22;10102;50.828;4.416;2023-06-26T09:59:04;24.60;99.90
19880;DHT22;10102;50.828;4.416;2023-06-26T10:01:31;24.80;99.90
19880;DHT22;10102;50.828;4.416;2023-06-26T10:03:58;24.80;99.90
19880;DHT22;10102;50.828;4.416;2023-06-26T10:06:46;24.90;99.90
19880;DHT22;10102;50.828;4.416;2023-06-26T10:09:15;24.90;99.90
19880;DHT22;10102;50.828;4.416;2023-06-26T10:12:03;25.20;99.90
19880;DHT22;10102;50.828;4.416;2023-06-26T10:14:36;25.30;99.90
19880;DHT22;10102;50.828;4.416;2023-06-26T10:17:10;25.50;99.90
19880;DHT22;10102;50.828;4.416;2023-06-26T10:19:39;25.10;99.90
19880;DHT22;10102;50.828;4.416;2023-06-26T10:22:07;24.90;99.90
19880;DHT22;10102;50.828;4.416;2023-06-26T10:24:35;24.80;99.90
19880;DHT22;10102;50.828;4.416;2023-06-26T10:27:14;24.90;99.90
19880;DHT22;10102;50.828;4.416;2023-06-26T10:29:43;25.00;99.90
19880;DHT22;10102;50.828;4.416;2023-06-26T10:32:12;25.40;99.90
19880;DHT22;10102;50.828;4.416;2023-06-26T10:34:38;25.30;99.90
19880;DHT22;10102;50.828;4.416;2023-06-26T10:37:04;25.50;99.90
19880;DHT22;10102;50.828;4.416;2023-06-26T10:39:53;25.70;99.90
19880;DHT22;10102;50.828;4.416;2023-06-26T10:42:42;25.60;99.90
19880;DHT22;10102;50.828;4.416;2023-06-26T10:45:20;25.50;99.90
19880;DHT22;10102;50.828;4.416;2023-06-26T10:47:47;25.60;99.90
19880;DHT22;10102;50.828;4.416;2023-06-26T10:52:41;25.60;99.90
19880;DHT22;10102;50.828;4.416;2023-06-26T10:55:10;25.90;99.90
19880;DHT22;10102;50.828;4.416;2023-06-26T10:57:36;26.10;99.90
19880;DHT22;10102;50.828;4.416;2023-06-26T11:00:16;25.70;99.90
19880;DHT22;10102;50.828;4.416;2023-06-26T11:02:51;25.40;99.90
19880;DHT22;10102;50.828;4.416;2023-06-26T11:05:24;25.10;99.90
19880;DHT22;10102;50.828;4.416;2023-06-26T11:08:17;25.40;99.90
19880;DHT22;10102;50.828;4.416;2023-06-26T11:13:18;25.80;99.90
19880;DHT22;10102;50.828;4.416;2023-06-26T11:15:45;26.20;99.90
19880;DHT22;10102;50.828;4.416;2023-06-26T11:18:12;26.50;99.70
19880;DHT22;10102;50.828;4.416;2023-06-26T11:20:38;25.80;99.50
19880;DHT22;10102;50.828;4.416;2023-06-26T11:23:08;25.60;99.90
19880;DHT22;10102;50.828;4.416;2023-06-26T11:25:37;25.60;99.90
19880;DHT22;10102;50.828;4.416;2023-06-26T11:28:04;25.60;99.90
19880;DHT22;10102;50.828;4.416;2023-06-26T11:30:31;25.50;99.90
19880;DHT22;10102;50.828;4.416;2023-06-26T11:33:07;25.40;99.90
19880;DHT22;10102;50.828;4.416;2023-06-26T11:35:33;24.70;99.90
19880;DHT22;10102;50.828;4.416;2023-06-26T11:38:00;25.70;99.90
19880;DHT22;10102;50.828;4.416;2023-06-26T11:40:33;25.90;99.90
19880;DHT22;10102;50.828;4.416;2023-06-26T11:43:03;27.40;99.80
19880;DHT22;10102;50.828;4.416;2023-06-26T11:45:29;28.40;97.80
19880;DHT22;10102;50.828;4.416;2023-06-26T11:47:59;27.50;97.20
19880;DHT22;10102;50.828;4.416;2023-06-26T11:50:26;27.50;98.00
19880;DHT22;10102;50.828;4.416;2023-06-26T11:52:58;27.90;96.30
19880;DHT22;10102;50.828;4.416;2023-06-26T11:55:25;28.00;95.20
19880;DHT22;10102;50.828;4.416;2023-06-26T11:57:54;28.00;94.30
19880;DHT22;10102;50.828;4.416;2023-06-26T12:00:20;27.30;95.10
19880;DHT22;10102;50.828;4.416;2023-06-26T12:02:46;26.10;99.90
19880;DHT22;10102;50.828;4.416;2023-06-26T12:05:14;26.20;97.70
19880;DHT22;10102;50.828;4.416;2023-06-26T12:07:44;26.80;96.50
19880;DHT22;10102;50.828;4.416;2023-06-26T12:10:11;29.10;94.30
19880;DHT22;10102;50.828;4.416;2023-06-26T12:12:39;32.30;89.40
19880;DHT22;10102;50.828;4.416;2023-06-26T12:15:06;33.10;82.90
19880;DHT22;10102;50.828;4.416;2023-06-26T12:17:33;30.50;82.50
19880;DHT22;10102;50.828;4.416;2023-06-26T12:19:58;30.40;84.40
19880;DHT22;10102;50.828;4.416;2023-06-26T12:22:24;30.90;83.00
19880;DHT22;10102;50.828;4.416;2023-06-26T12:24:58;32.30;80.20
19880;DHT22;10102;50.828;4.416;2023-06-26T12:27:25;31.70;77.00
19880;DHT22;10102;50.828;4.416;2023-06-26T12:29:53;31.50;77.80
19880;DHT22;10102;50.828;4.416;2023-06-26T12:32:19;33.00;75.20
19880;DHT22;10102;50.828;4.416;2023-06-26T12:34:49;31.70;76.40
19880;DHT22;10102;50.828;4.416;2023-06-26T12:37:16;30.40;78.80
19880;DHT22;10102;50.828;4.416;2023-06-26T12:39:53;29.30;80.90
19880;DHT22;10102;50.828;4.416;2023-06-26T12:42:21;28.10;83.50
19880;DHT22;10102;50.828;4.416;2023-06-26T12:44:47;27.80;85.10
19880;DHT22;10102;50.828;4.416;2023-06-26T12:47:15;29.40;82.90
19880;DHT22;10102;50.828;4.416;2023-06-26T12:49:42;31.00;78.50
19880;DHT22;10102;50.828;4.416;2023-06-26T12:52:10;33.70;76.00
19880;DHT22;10102;50.828;4.416;2023-06-26T12:54:41;35.20;68.40
19880;DHT22;10102;50.828;4.416;2023-06-26T12:57:08;34.80;67.90
19880;DHT22;10102;50.828;4.416;2023-06-26T12:59:35;34.60;67.60
19880;DHT22;10102;50.828;4.416;2023-06-26T13:02:01;34.80;68.20
19880;DHT22;10102;50.828;4.416;2023-06-26T13:04:28;34.70;65.80
19880;DHT22;10102;50.828;4.416;2023-06-26T13:06:53;34.90;65.10
19880;DHT22;10102;50.828;4.416;2023-06-26T13:09:25;35.20;63.50
19880;DHT22;10102;50.828;4.416;2023-06-26T13:11:52;35.70;63.70
19880;DHT22;10102;50.828;4.416;2023-06-26T13:14:18;35.70;64.60
19880;DHT22;10102;50.828;4.416;2023-06-26T13:16:43;34.90;65.50
19880;DHT22;10102;50.828;4.416;2023-06-26T13:19:09;34.60;65.90
19880;DHT22;10102;50.828;4.416;2023-06-26T13:21:35;33.60;66.50
19880;DHT22;10102;50.828;4.416;2023-06-26T13:24:01;32.50;68.70
19880;DHT22;10102;50.828;4.416;2023-06-26T13:26:28;31.30;72.10
19880;DHT22;10102;50.828;4.416;2023-06-26T13:28:55;30.60;74.40
19880;DHT22;10102;50.828;4.416;2023-06-26T13:31:21;30.20;75.10
19880;DHT22;10102;50.828;4.416;2023-06-26T13:33:47;31.10;74.50
19880;DHT22;10102;50.828;4.416;2023-06-26T13:36:17;32.20;70.20
19880;DHT22;10102;50.828;4.416;2023-06-26T13:38:43;33.20;69.20
19880;DHT22;10102;50.828;4.416;2023-06-26T13:41:09;34.30;66.10
19880;DHT22;10102;50.828;4.416;2023-06-26T13:43:35;36.00;62.20
19880;DHT22;10102;50.828;4.416;2023-06-26T13:46:01;34.90;63.20
19880;DHT22;10102;50.828;4.416;2023-06-26T13:48:27;34.30;65.10
19880;DHT22;10102;50.828;4.416;2023-06-26T13:50:53;32.80;68.00
19880;DHT22;10102;50.828;4.416;2023-06-26T13:53:19;34.40;65.70
19880;DHT22;10102;50.828;4.416;2023-06-26T13:55:44;34.70;64.90
19880;DHT22;10102;50.828;4.416;2023-06-26T13:58:10;34.70;63.90
19880;DHT22;10102;50.828;4.416;2023-06-26T14:00:37;36.40;61.70
19880;DHT22;10102;50.828;4.416;2023-06-26T14:03:07;38.10;59.00
19880;DHT22;10102;50.828;4.416;2023-06-26T14:05:36;40.20;57.80
19880;DHT22;10102;50.828;4.416;2023-06-26T14:08:06;40.60;55.50
19880;DHT22;10102;50.828;4.416;2023-06-26T14:10:33;40.20;54.90
19880;DHT22;10102;50.828;4.416;2023-06-26T14:13:01;40.10;55.10
19880;DHT22;10102;50.828;4.416;2023-06-26T14:15:28;39.40;54.40
19880;DHT22;10102;50.828;4.416;2023-06-26T14:17:54;36.30;56.30
19880;DHT22;10102;50.828;4.416;2023-06-26T14:20:21;34.30;58.50
19880;DHT22;10102;50.828;4.416;2023-06-26T14:22:48;35.00;58.90
19880;DHT22;10102;50.828;4.416;2023-06-26T14:25:14;36.20;56.80
19880;DHT22;10102;50.828;4.416;2023-06-26T14:27:40;37.20;56.50
19880;DHT22;10102;50.828;4.416;2023-06-26T14:30:07;35.70;56.90
19880;DHT22;10102;50.828;4.416;2023-06-26T14:32:35;34.60;58.20
19880;DHT22;10102;50.828;4.416;2023-06-26T14:35:01;34.40;58.20
19880;DHT22;10102;50.828;4.416;2023-06-26T14:37:29;33.60;60.00
19880;DHT22;10102;50.828;4.416;2023-06-26T14:39:55;33.60;60.40
19880;DHT22;10102;50.828;4.416;2023-06-26T14:42:21;34.70;58.50
19880;DHT22;10102;50.828;4.416;2023-06-26T14:44:46;34.30;58.90
19880;DHT22;10102;50.828;4.416;2023-06-26T14:47:19;35.90;59.40
19880;DHT22;10102;50.828;4.416;2023-06-26T14:49:45;34.90;58.30
19880;DHT22;10102;50.828;4.416;2023-06-26T14:52:11;35.20;59.80
19880;DHT22;10102;50.828;4.416;2023-06-26T14:54:36;35.20;59.90
19880;DHT22;10102;50.828;4.416;2023-06-26T14:57:03;33.50;61.00
19880;DHT22;10102;50.828;4.416;2023-06-26T14:59:29;33.00;62.30
19880;DHT22;10102;50.828;4.416;2023-06-26T15:01:55;32.10;63.90
19880;DHT22;10102;50.828;4.416;2023-06-26T15:04:20;31.50;64.70
19880;DHT22;10102;50.828;4.416;2023-06-26T15:06:46;30.90;66.10
19880;DHT22;10102;50.828;4.416;2023-06-26T15:09:11;30.50;67.00
19880;DHT22;10102;50.828;4.416;2023-06-26T15:11:37;29.90;69.90
19880;DHT22;10102;50.828;4.416;2023-06-26T15:14:03;28.30;86.20
19880;DHT22;10102;50.828;4.416;2023-06-26T15:16:28;28.70;84.50
19880;DHT22;10102;50.828;4.416;2023-06-26T15:18:54;28.80;71.50
19880;DHT22;10102;50.828;4.416;2023-06-26T15:21:20;28.80;87.60
19880;DHT22;10102;50.828;4.416;2023-06-26T15:23:46;28.80;72.40
19880;DHT22;10102;50.828;4.416;2023-06-26T15:26:12;29.40;73.10
19880;DHT22;10102;50.828;4.416;2023-06-26T15:28:39;30.00;70.50
19880;DHT22;10102;50.828;4.416;2023-06-26T15:31:05;29.70;72.20
19880;DHT22;10102;50.828;4.416;2023-06-26T15:33:30;29.20;87.70
19880;DHT22;10102;50.828;4.416;2023-06-26T15:35:56;29.20;73.60
19880;DHT22;10102;50.828;4.416;2023-06-26T15:38:21;29.10;74.20
19880;DHT22;10102;50.828;4.416;2023-06-26T15:40:47;29.20;74.70
19880;DHT22;10102;50.828;4.416;2023-06-26T15:43:13;29.70;74.40
19880;DHT22;10102;50.828;4.416;2023-06-26T15:45:38;30.20;72.20
19880;DHT22;10102;50.828;4.416;2023-06-26T15:48:04;30.30;70.40
19880;DHT22;10102;50.828;4.416;2023-06-26T15:50:30;30.20;86.70
19880;DHT22;10102;50.828;4.416;2023-06-26T15:52:56;30.10;71.80
19880;DHT22;10102;50.828;4.416;2023-06-26T15:55:21;29.80;90.10
19880;DHT22;10102;50.828;4.416;2023-06-26T15:57:47;29.60;74.10
19880;DHT22;10102;50.828;4.416;2023-06-26T16:00:13;29.50;73.40
19880;DHT22;10102;50.828;4.416;2023-06-26T16:02:40;28.60;89.10
19880;DHT22;10102;50.828;4.416;2023-06-26T16:05:06;28.60;74.10
19880;DHT22;10102;50.828;4.416;2023-06-26T16:07:32;28.10;76.10
19880;DHT22;10102;50.828;4.416;2023-06-26T16:09:58;27.90;77.30
19880;DHT22;10102;50.828;4.416;2023-06-26T16:12:23;27.80;76.70
19880;DHT22;10102;50.828;4.416;2023-06-26T16:14:49;27.10;90.60
19880;DHT22;10102;50.828;4.416;2023-06-26T16:17:15;27.20;75.60
19880;DHT22;10102;50.828;4.416;2023-06-26T16:19:41;27.10;76.30
19880;DHT22;10102;50.828;4.416;2023-06-26T16:22:07;27.00;76.60
19880;DHT22;10102;50.828;4.416;2023-06-26T16:24:34;26.70;90.80
19880;DHT22;10102;50.828;4.416;2023-06-26T16:27:00;26.90;77.20
19880;DHT22;10102;50.828;4.416;2023-06-26T16:29:25;26.50;78.60